Map

Track Data

SID SEASON NUMBER BASIN SUBBASIN NAME ISO_TIME NATURE LAT LON WMO_WIND WMO_PRES WMO_AGENCY TRACK_TYPE DIST2LAND LANDFALL IFLAG USA_AGENCY USA_ATCF_ID USA_LAT USA_LON USA_RECORD USA_STATUS USA_WIND USA_PRES USA_SSHS USA_R34_NE USA_R34_SE USA_R34_SW USA_R34_NW USA_R50_NE USA_R50_SE USA_R50_SW USA_R50_NW USA_R64_NE USA_R64_SE USA_R64_SW USA_R64_NW USA_POCI USA_ROCI USA_RMW USA_EYE TOKYO_LAT TOKYO_LON TOKYO_GRADE TOKYO_WIND TOKYO_PRES TOKYO_R50_DIR TOKYO_R50_LONG TOKYO_R50_SHORT TOKYO_R30_DIR TOKYO_R30_LONG TOKYO_R30_SHORT TOKYO_LAND CMA_LAT CMA_LON CMA_CAT CMA_WIND CMA_PRES HKO_LAT HKO_LON HKO_CAT HKO_WIND HKO_PRES NEWDELHI_LAT NEWDELHI_LON NEWDELHI_GRADE NEWDELHI_WIND NEWDELHI_PRES NEWDELHI_CI NEWDELHI_DP NEWDELHI_POCI REUNION_LAT REUNION_LON REUNION_TYPE REUNION_WIND REUNION_PRES REUNION_TNUM REUNION_CI REUNION_RMW REUNION_R34_NE REUNION_R34_SE REUNION_R34_SW REUNION_R34_NW REUNION_R50_NE REUNION_R50_SE REUNION_R50_SW REUNION_R50_NW REUNION_R64_NE REUNION_R64_SE REUNION_R64_SW REUNION_R64_NW BOM_LAT BOM_LON BOM_TYPE BOM_WIND BOM_PRES BOM_TNUM BOM_CI BOM_RMW BOM_R34_NE BOM_R34_SE BOM_R34_SW BOM_R34_NW BOM_R50_NE BOM_R50_SE BOM_R50_SW BOM_R50_NW BOM_R64_NE BOM_R64_SE BOM_R64_SW BOM_R64_NW BOM_ROCI BOM_POCI BOM_EYE BOM_POS_METHOD BOM_PRES_METHOD NADI_LAT NADI_LON NADI_CAT NADI_WIND NADI_PRES WELLINGTON_LAT WELLINGTON_LON WELLINGTON_WIND WELLINGTON_PRES DS824_LAT DS824_LON DS824_STAGE DS824_WIND DS824_PRES TD9636_LAT TD9636_LON TD9636_STAGE TD9636_WIND TD9636_PRES TD9635_LAT TD9635_LON TD9635_WIND TD9635_PRES TD9635_ROCI NEUMANN_LAT NEUMANN_LON NEUMANN_CLASS NEUMANN_WIND NEUMANN_PRES MLC_LAT MLC_LON MLC_CLASS MLC_WIND MLC_PRES USA_GUST BOM_GUST BOM_GUST_PER REUNION_GUST REUNION_GUST_PER USA_SEAHGT USA_SEARAD_NE USA_SEARAD_SE USA_SEARAD_SW USA_SEARAD_NW STORM_SPEED STORM_DIR
1901231N12307 1901 25 NA NA NOT_NAMED 1901-08-18 12:00:00 TS 11.5000 -53.0000 30 hurdat_atl main 641 632 O_____________ hurdat_atl AL051901 11.5000 -53.0000 TD 30 -1 10 276
1901231N12307 1901 25 NA NA NOT_NAMED 1901-08-18 15:00:00 TS 11.5528 -53.5224 main 643 638 P_____________ AL051901 11.5528 -53.5224 TD 30 -1 10 276
1901231N12307 1901 25 NA NA NOT_NAMED 1901-08-18 18:00:00 TS 11.6000 -54.0000 30 hurdat_atl main 638 638 O_____________ hurdat_atl AL051901 11.6000 -54.0000 TD 30 -1 9 276
1901231N12307 1901 25 NA NA NOT_NAMED 1901-08-18 21:00:00 TS 11.6423 -54.4076 main 638 619 P_____________ AL051901 11.6423 -54.4076 TD 30 -1 8 277
1901231N12307 1901 25 NA NA NOT_NAMED 1901-08-19 00:00:00 TS 11.7000 -54.8000 30 hurdat_atl main 619 595 O_____________ hurdat_atl AL051901 11.7000 -54.8000 TD 30 -1 8 281
1901231N12307 1901 25 NA NA NOT_NAMED 1901-08-19 03:00:00 TS 11.7999 -55.2350 main 595 567 P_____________ AL051901 11.7999 -55.2350 TD 30 -1 9 283
1901231N12307 1901 25 NA NA NOT_NAMED 1901-08-19 06:00:00 TS 11.9000 -55.7000 30 hurdat_atl main 567 540 O_____________ hurdat_atl AL051901 11.9000 -55.7000 TD 30 -1 10 280
1901231N12307 1901 25 NA NA NOT_NAMED 1901-08-19 09:00:00 TS 11.9574 -56.1926 main 543 491 P_____________ AL051901 11.9574 -56.1926 TD 32 -1 10 276
1901231N12307 1901 25 NA NA NOT_NAMED 1901-08-19 12:00:00 TS 12.0000 -56.7000 35 hurdat_atl main 491 439 O_____________ hurdat_atl AL051901 12.0000 -56.7000 TS 35 0 10 275
1901231N12307 1901 25 NA NA NOT_NAMED 1901-08-19 15:00:00 TS 12.0499 -57.2075 main 439 392 P_____________ AL051901 12.0499 -57.2075 TS 35 0 10 276
1901231N12307 1901 25 NA NA NOT_NAMED 1901-08-19 18:00:00 TS 12.1000 -57.7000 35 hurdat_atl main 392 353 O_____________ hurdat_atl AL051901 12.1000 -57.7000 TS 35 0 9 277
1901231N12307 1901 25 NA NA NOT_NAMED 1901-08-19 21:00:00 TS 12.1574 -58.1575 main 348 311 P_____________ AL051901 12.1574 -58.1575 TS 37 0 9 276
1901231N12307 1901 25 NA NA NOT_NAMED 1901-08-20 00:00:00 TS 12.2000 -58.6000 40 hurdat_atl main 311 275 O_____________ hurdat_atl AL051901 12.2000 -58.6000 TS 40 0 9 273
1901231N12307 1901 25 NA NA NOT_NAMED 1901-08-20 03:00:00 TS 12.2000 -59.0576 main 266 234 P_____________ AL051901 12.2000 -59.0576 TS 40 0 9 270
1901231N12307 1901 25 NA NA NOT_NAMED 1901-08-20 06:00:00 TS 12.2000 -59.5000 40 hurdat_atl main 234 206 O_____________ hurdat_atl AL051901 12.2000 -59.5000 TS 40 0 8 273
1901231N12307 1901 25 NA CS NOT_NAMED 1901-08-20 09:00:00 TS 12.2499 -59.9000 main 206 194 P_____________ AL051901 12.2499 -59.9000 TS 42 0 8 277
1901231N12307 1901 25 NA CS NOT_NAMED 1901-08-20 12:00:00 TS 12.3000 -60.3000 45 hurdat_atl main 194 182 O_____________ hurdat_atl AL051901 12.3000 -60.3000 TS 45 0 8 274
1901231N12307 1901 25 NA CS NOT_NAMED 1901-08-20 15:00:00 TS 12.2999 -60.7351 main 182 179 P_____________ AL051901 12.2999 -60.7351 TS 45 0 9 270
1901231N12307 1901 25 NA CS NOT_NAMED 1901-08-20 18:00:00 TS 12.3000 -61.2000 45 hurdat_atl main 179 179 O_____________ hurdat_atl AL051901 12.3000 -61.2000 TS 45 0 9 273
1901231N12307 1901 25 NA CS NOT_NAMED 1901-08-20 21:00:00 TS 12.3499 -61.6849 main 179 179 P_____________ AL051901 12.3499 -61.6849 TS 42 0 10 276
1901231N12307 1901 25 NA CS NOT_NAMED 1901-08-21 00:00:00 TS 12.4000 -62.2000 40 hurdat_atl main 190 190 O_____________ hurdat_atl AL051901 12.4000 -62.2000 TS 40 0 10 273
1901231N12307 1901 25 NA CS NOT_NAMED 1901-08-21 03:00:00 TS 12.3999 -62.7351 main 190 190 P_____________ AL051901 12.3999 -62.7351 TS 37 0 11 270
1901231N12307 1901 25 NA CS NOT_NAMED 1901-08-21 06:00:00 TS 12.4000 -63.3000 35 hurdat_atl main 191 191 O_____________ hurdat_atl AL051901 12.4000 -63.3000 TS 35 0 11 272
1901231N12307 1901 25 NA CS NOT_NAMED 1901-08-21 09:00:00 TS 12.4424 -63.8850 main 202 201 P_____________ AL051901 12.4424 -63.8850 TS 32 -1 12 275
1901231N12307 1901 25 NA CS NOT_NAMED 1901-08-21 12:00:00 TS 12.5000 -64.5000 30 hurdat_atl main 215 215 O_____________ hurdat_atl AL051901 12.5000 -64.5000 TD 30 -1 12 275
1901231N12307 1901 25 NA CS NOT_NAMED 1901-08-21 15:00:00 TS 12.5574 -65.1425 main 244 225 P_____________ AL051901 12.5574 -65.1425 TD 30 -1 13 275
1901231N12307 1901 25 NA CS NOT_NAMED 1901-08-21 18:00:00 TS 12.6000 -65.8000 30 hurdat_atl main 225 223 O_____________ hurdat_atl AL051901 12.6000 -65.8000 TD 30 -1 13 272
1901231N12307 1901 25 NA CS NOT_NAMED 1901-08-21 21:00:00 TS 12.6074 -66.4576 main 223 211 P_____________ AL051901 12.6074 -66.4576 TD 27 -1 13 270
1901231N12307 1901 25 NA CS NOT_NAMED 1901-08-22 00:00:00 TS 12.6000 -67.1000 25 hurdat_atl main 211 174 O_____________ hurdat_atl AL051901 12.6000 -67.1000 TD 25 -1 12 269
1901231N12307 1901 25 NA CS NOT_NAMED 1901-08-22 03:00:00 TS 12.5923 -67.7076 main 174 144 P_____________ AL051901 12.5923 -67.7076 TD 25 -1 12 270
1901231N12307 1901 25 NA CS NOT_NAMED 1901-08-22 06:00:00 TS 12.6000 -68.3000 25 hurdat_atl main 144 127 O_____________ hurdat_atl AL051901 12.6000 -68.3000 TD 25 -1 11 273
1901231N12307 1901 25 NA CS NOT_NAMED 1901-08-22 09:00:00 TS 12.6422 -68.8775 main 118 80 P_____________ AL051901 12.6422 -68.8775 TD 25 -1 12 275
1901231N12307 1901 25 NA CS NOT_NAMED 1901-08-22 12:00:00 TS 12.7000 -69.5000 25 hurdat_atl main 80 67 O_____________ hurdat_atl AL051901 12.7000 -69.5000 TD 25 -1 13 275
1901231N12307 1901 25 NA CS NOT_NAMED 1901-08-22 15:00:00 TS 12.7531 -70.2199 main 78 64 P_____________ AL051901 12.7531 -70.2199 TD 25 -1 15 274
1901231N12307 1901 25 NA CS NOT_NAMED 1901-08-22 18:00:00 TS 12.8000 -71.0000 25 hurdat_atl main 64 O_____________ hurdat_atl AL051901 12.8000 -71.0000 TD 25 -1 15 274

About IBTrACS Database

This database is a web-friendly format of International Best Track Archive for Climate Stewardship (IBTrACS), a global best track data archive curated by NOAA dating back to 1842.

Updated: 2021-10-08